Time;durP1;ratioP1;P1;durP2;ratioP2;P2;SDS_P1;SDS_P2;PMS_P1;PMS_P2;Temp;Humidity;BMP_temperature;BMP_pressure;BME280_temperature;BME280_humidity;BME280_pressure;Samples;Min_cycle;Max_cycle;Signal;HPM_P1;HPM_P2
2023/04/11 00:00:57;;;;;;;17.08;4.30;;;9.10;99.90;;;;;;4995971;28;20022;-84
2023/04/11 00:03:23;;;;;;;19.05;4.30;;;9.20;99.90;;;;;;5009797;28;20029;-85
2023/04/11 00:05:52;;;;;;;18.35;4.97;;;9.40;99.90;;;;;;5013493;28;20389;-83
2023/04/11 00:08:17;;;;;;;20.77;5.75;;;9.50;99.90;;;;;;4981059;28;20544;-84
2023/04/11 00:10:43;;;;;;;19.25;5.63;;;9.50;99.90;;;;;;4998318;28;20037;-83
2023/04/11 00:13:09;;;;;;;19.75;4.95;;;9.60;99.90;;;;;;4981850;28;20588;-84
2023/04/11 00:15:35;;;;;;;20.77;4.53;;;9.60;99.90;;;;;;4996183;28;20037;-85
2023/04/11 00:18:01;;;;;;;20.50;5.63;;;9.60;99.90;;;;;;4998262;28;20044;-84
2023/04/11 00:20:27;;;;;;;17.52;4.38;;;9.60;99.90;;;;;;4984530;28;20034;-86
2023/04/11 00:22:57;;;;;;;13.60;4.93;;;9.60;99.90;;;;;;5016901;28;20021;-85
2023/04/11 00:25:25;;;;;;;31.33;7.03;;;9.60;99.90;;;;;;5020908;28;20112;-88
2023/04/11 00:27:55;;;;;;;20.65;5.25;;;9.50;99.90;;;;;;5028017;28;20120;-89
2023/04/11 00:30:24;;;;;;;19.20;5.60;;;9.50;99.90;;;;;;5026719;28;20087;-86
2023/04/11 00:32:50;;;;;;;20.85;5.40;;;9.50;99.90;;;;;;5023918;28;20382;-88
2023/04/11 00:35:15;;;;;;;18.80;4.18;;;9.40;99.90;;;;;;5010555;28;20021;-89
2023/04/11 00:37:43;;;;;;;20.38;6.05;;;9.40;99.90;;;;;;5027751;28;20037;-88
2023/04/11 00:40:11;;;;;;;20.98;6.10;;;9.40;99.90;;;;;;4993644;28;20041;-87
2023/04/11 00:42:39;;;;;;;20.88;5.93;;;9.40;99.90;;;;;;5022526;28;20029;-88
2023/04/11 00:45:06;;;;;;;24.17;5.50;;;9.30;99.90;;;;;;5027538;28;20720;-87
2023/04/11 00:47:33;;;;;;;27.13;6.63;;;9.30;99.90;;;;;;5011675;28;20022;-88
2023/04/11 00:49:59;;;;;;;20.55;5.53;;;9.30;99.90;;;;;;5006959;28;20033;-89
2023/04/11 00:52:25;;;;;;;22.42;4.97;;;9.20;99.90;;;;;;5020377;28;20069;-87
2023/04/11 00:54:51;;;;;;;21.95;4.70;;;9.20;99.90;;;;;;5012916;28;20410;-87
2023/04/11 00:57:16;;;;;;;23.42;5.25;;;9.20;99.90;;;;;;5024213;28;22400;-89
2023/04/11 00:59:47;;;;;;;22.52;4.95;;;9.10;99.90;;;;;;5012612;28;20033;-87
2023/04/11 01:02:13;;;;;;;20.08;4.57;;;9.10;99.90;;;;;;5014974;28;21049;-88
2023/04/11 01:04:39;;;;;;;22.90;4.95;;;9.10;99.90;;;;;;5009405;28;20049;-87
2023/04/11 01:07:07;;;;;;;23.75;5.95;;;9.00;99.90;;;;;;5029870;28;20036;-86
2023/04/11 01:09:35;;;;;;;23.73;4.63;;;9.00;99.90;;;;;;5027484;28;20033;-87
2023/04/11 01:12:02;;;;;;;23.70;4.85;;;9.00;99.90;;;;;;5010801;28;20026;-87
2023/04/11 01:14:29;;;;;;;21.08;4.30;;;9.00;99.90;;;;;;5027693;28;20082;-87
2023/04/11 01:17:00;;;;;;;22.90;4.72;;;8.90;99.90;;;;;;5029516;28;20037;-88
2023/04/11 01:19:27;;;;;;;21.33;4.30;;;8.90;99.90;;;;;;5011850;28;20049;-87
2023/04/11 01:21:56;;;;;;;22.38;4.55;;;8.90;99.90;;;;;;5025696;28;20026;-87
2023/04/11 01:24:22;;;;;;;16.88;3.85;;;8.90;99.90;;;;;;5026235;28;20091;-87
2023/04/11 01:26:48;;;;;;;27.00;5.35;;;8.90;99.90;;;;;;5008705;28;20075;-88
2023/04/11 01:29:17;;;;;;;22.08;4.72;;;8.90;99.90;;;;;;5008821;28;20499;-87
2023/04/11 01:31:43;;;;;;;19.08;3.60;;;8.80;99.90;;;;;;5013201;28;20424;-87
2023/04/11 01:34:14;;;;;;;21.05;3.70;;;8.80;99.90;;;;;;5030117;28;20133;-87
2023/04/11 01:36:41;;;;;;;19.33;4.38;;;8.80;99.90;;;;;;5021095;28;20048;-87
2023/04/11 01:39:07;;;;;;;28.55;6.05;;;8.80;99.90;;;;;;5008783;28;20496;-88
2023/04/11 01:41:34;;;;;;;29.33;6.05;;;8.80;99.90;;;;;;5025580;28;20033;-87
2023/04/11 01:44:04;;;;;;;19.05;4.10;;;8.80;99.90;;;;;;5031955;28;20369;-87
2023/04/11 01:46:32;;;;;;;24.10;5.22;;;8.70;99.90;;;;;;5010681;28;20033;-87
2023/04/11 01:49:02;;;;;;;25.50;5.45;;;8.70;99.90;;;;;;5016978;28;20389;-88
2023/04/11 01:51:29;;;;;;;24.40;4.75;;;8.70;99.90;;;;;;5023121;28;20033;-88
2023/04/11 01:53:55;;;;;;;25.92;4.68;;;8.60;99.90;;;;;;5030541;28;20024;-87
2023/04/11 01:56:21;;;;;;;26.00;4.47;;;8.70;99.90;;;;;;5017672;28;20042;-88
2023/04/11 01:58:48;;;;;;;19.55;4.45;;;8.60;99.90;;;;;;5026592;28;20033;-88
2023/04/11 02:01:18;;;;;;;24.73;5.07;;;8.60;99.90;;;;;;5006753;28;20029;-88
2023/04/11 02:03:45;;;;;;;23.23;4.72;;;8.60;99.90;;;;;;5004444;28;21243;-89
2023/04/11 02:06:11;;;;;;;22.35;4.07;;;8.60;99.90;;;;;;5029183;28;20103;-87
2023/04/11 02:08:36;;;;;;;22.58;4.43;;;8.60;99.90;;;;;;5008022;28;20512;-87
2023/04/11 02:11:02;;;;;;;24.10;4.88;;;8.60;99.90;;;;;;5027195;28;20045;-87
2023/04/11 02:13:28;;;;;;;20.27;4.32;;;8.60;99.90;;;;;;5028618;28;20017;-87
2023/04/11 02:15:54;;;;;;;18.85;3.95;;;8.50;99.90;;;;;;5014618;28;20033;-87
2023/04/11 02:18:19;;;;;;;31.83;5.55;;;8.50;99.90;;;;;;5008740;28;20037;-87
2023/04/11 02:20:49;;;;;;;26.92;4.97;;;8.50;99.90;;;;;;5031337;28;20037;-89
2023/04/11 02:23:15;;;;;;;24.92;3.90;;;8.50;99.90;;;;;;5008178;28;20083;-90
2023/04/11 02:25:42;;;;;;;22.95;4.03;;;8.50;99.90;;;;;;5011537;28;20044;-89
2023/04/11 02:28:08;;;;;;;23.75;3.92;;;8.60;99.90;;;;;;5021644;28;20477;-87
2023/04/11 02:30:34;;;;;;;21.85;4.18;;;8.60;99.90;;;;;;5008282;28;20100;-87
2023/04/11 02:32:59;;;;;;;23.75;3.88;;;8.60;99.90;;;;;;5009748;28;20400;-89
2023/04/11 02:35:26;;;;;;;19.30;4.20;;;8.60;99.90;;;;;;5031175;28;20028;-87
2023/04/11 02:37:53;;;;;;;18.58;3.47;;;8.60;99.90;;;;;;5028913;28;20037;-87
2023/04/11 02:40:19;;;;;;;20.50;3.90;;;8.70;99.90;;;;;;5016431;28;20057;-87
2023/04/11 02:42:45;;;;;;;11.98;2.55;;;8.60;99.90;;;;;;5024916;28;20072;-86
2023/04/11 02:45:10;;;;;;;9.18;2.50;;;8.20;99.90;;;;;;5023116;28;22361;-88
2023/04/11 02:47:37;;;;;;;7.82;2.60;;;8.00;99.90;;;;;;5012564;28;20708;-87
2023/04/11 02:50:07;;;;;;;9.48;2.10;;;7.70;99.90;;;;;;5027733;28;20025;-87
2023/04/11 02:52:33;;;;;;;8.32;2.17;;;7.50;99.90;;;;;;5025574;28;20501;-87
2023/04/11 02:54:59;;;;;;;11.90;2.30;;;7.50;99.90;;;;;;5018129;28;20017;-89
2023/04/11 02:57:25;;;;;;;8.60;2.00;;;7.50;99.90;;;;;;5005999;28;20481;-88
2023/04/11 02:59:52;;;;;;;11.05;2.38;;;7.50;99.90;;;;;;5013859;28;20481;-87
2023/04/11 03:02:18;;;;;;;17.00;3.28;;;7.60;99.90;;;;;;5011744;28;20092;-87
2023/04/11 03:04:45;;;;;;;17.30;3.00;;;7.70;99.90;;;;;;5028303;28;20050;-87
2023/04/11 03:07:11;;;;;;;18.33;3.05;;;7.70;99.90;;;;;;5013741;28;20038;-87
2023/04/11 03:09:37;;;;;;;16.27;2.60;;;7.80;99.90;;;;;;5009153;28;20466;-88
2023/04/11 03:12:03;;;;;;;25.95;4.65;;;7.90;99.90;;;;;;5018512;28;20037;-87
2023/04/11 03:14:31;;;;;;;18.40;4.07;;;7.90;99.90;;;;;;5016104;28;20022;-87
2023/04/11 03:16:57;;;;;;;24.48;4.03;;;8.00;99.90;;;;;;4997358;28;20125;-87
2023/04/11 03:19:22;;;;;;;24.08;3.70;;;8.00;99.90;;;;;;5015972;28;20171;-86
2023/04/11 03:21:48;;;;;;;25.63;4.47;;;7.90;99.90;;;;;;5026545;28;20030;-87
2023/04/11 03:24:14;;;;;;;17.58;3.88;;;8.00;99.90;;;;;;5025923;28;20025;-88
2023/04/11 03:26:40;;;;;;;15.00;2.65;;;8.00;99.90;;;;;;5026300;28;20120;-88
2023/04/11 03:29:06;;;;;;;23.83;4.63;;;8.00;99.90;;;;;;5008850;28;20440;-87
2023/04/11 03:31:32;;;;;;;26.40;4.57;;;8.00;99.90;;;;;;5012068;28;20037;-87
2023/04/11 03:33:58;;;;;;;18.48;3.03;;;8.00;99.90;;;;;;5010766;28;20417;-88
2023/04/11 03:36:25;;;;;;;24.92;4.53;;;8.00;99.90;;;;;;5007876;28;20037;-88
2023/04/11 03:38:51;;;;;;;24.48;4.00;;;7.90;99.90;;;;;;5025684;28;20509;-88
2023/04/11 03:41:20;;;;;;;21.33;4.03;;;7.90;99.90;;;;;;5006453;28;20049;-88
2023/04/11 03:43:46;;;;;;;18.80;3.50;;;7.80;99.90;;;;;;5009867;28;20021;-88
2023/04/11 03:46:12;;;;;;;23.17;3.78;;;7.80;99.90;;;;;;5011641;28;20120;-88
2023/04/11 03:48:38;;;;;;;19.88;2.83;;;7.80;99.90;;;;;;5009534;28;20014;-88
2023/04/11 03:51:04;;;;;;;24.38;2.92;;;7.80;99.90;;;;;;5027227;28;20030;-87
2023/04/11 03:53:30;;;;;;;17.58;3.03;;;7.90;99.90;;;;;;5024113;28;20052;-88
2023/04/11 03:55:56;;;;;;;18.20;2.65;;;7.90;99.90;;;;;;5025241;28;20045;-87
2023/04/11 03:58:22;;;;;;;17.10;2.72;;;7.90;99.90;;;;;;5008522;28;20052;-87
2023/04/11 04:00:47;;;;;;;12.25;2.67;;;7.90;99.90;;;;;;5013347;28;20113;-87
2023/04/11 04:03:13;;;;;;;18.02;3.03;;;7.90;99.90;;;;;;5007712;28;20026;-87
2023/04/11 04:05:40;;;;;;;12.27;2.60;;;7.90;99.90;;;;;;4992556;28;20042;-88
2023/04/11 04:08:06;;;;;;;11.98;3.30;;;7.90;99.90;;;;;;5001565;28;20054;-86
2023/04/11 04:10:32;;;;;;;8.18;1.98;;;7.90;99.90;;;;;;4998722;28;20027;-86
2023/04/11 04:12:58;;;;;;;13.05;2.60;;;7.90;99.90;;;;;;5007924;28;20025;-86
2023/04/11 04:15:24;;;;;;;13.23;2.30;;;7.90;99.90;;;;;;4988717;28;20045;-86
2023/04/11 04:17:55;;;;;;;12.82;3.03;;;7.90;99.90;;;;;;4983950;28;20036;-86
2023/04/11 04:20:21;;;;;;;10.27;2.83;;;7.90;99.90;;;;;;4992547;28;20486;-87
2023/04/11 04:22:47;;;;;;;11.00;2.63;;;8.00;99.90;;;;;;4983390;28;20025;-88
2023/04/11 04:25:18;;;;;;;7.18;1.90;;;8.00;99.90;;;;;;5010381;28;20066;-87
2023/04/11 04:27:45;;;;;;;9.82;2.40;;;8.00;99.90;;;;;;4998239;28;20145;-87
2023/04/11 04:30:14;;;;;;;9.88;2.17;;;8.00;99.90;;;;;;4998402;28;20062;-87
2023/04/11 04:32:42;;;;;;;11.38;2.20;;;8.00;99.90;;;;;;4994363;28;20032;-88
2023/04/11 04:35:09;;;;;;;9.00;2.85;;;8.10;99.90;;;;;;5004492;28;20411;-88
2023/04/11 04:37:38;;;;;;;11.30;2.15;;;8.00;99.90;;;;;;4994356;28;20062;-87
2023/04/11 04:40:08;;;;;;;10.63;2.75;;;8.10;99.90;;;;;;4994440;28;20039;-87
2023/04/11 04:42:35;;;;;;;9.20;2.08;;;8.00;99.90;;;;;;4994877;28;20022;-86
2023/04/11 04:45:01;;;;;;;11.73;2.05;;;8.10;99.90;;;;;;5000267;28;20045;-88
2023/04/11 04:47:32;;;;;;;7.68;1.52;;;8.00;99.90;;;;;;4992602;28;20062;-87
2023/04/11 04:49:59;;;;;;;12.13;2.15;;;8.00;99.90;;;;;;5010517;28;20057;-88
2023/04/11 04:52:26;;;;;;;12.98;1.98;;;8.00;99.90;;;;;;4995138;28;20401;-88
2023/04/11 04:54:56;;;;;;;14.15;2.13;;;8.00;99.90;;;;;;5010260;28;20033;-87
2023/04/11 04:57:26;;;;;;;12.32;2.03;;;8.00;99.90;;;;;;4997162;28;20029;-88
2023/04/11 04:59:52;;;;;;;11.63;1.83;;;8.00;99.90;;;;;;5002393;28;20061;-86
2023/04/11 05:02:20;;;;;;;10.75;2.17;;;8.00;99.90;;;;;;4996069;28;20034;-87
2023/04/11 05:04:49;;;;;;;12.55;2.25;;;8.00;99.90;;;;;;5001071;28;20038;-87
2023/04/11 05:07:22;;;;;;;12.95;1.85;;;7.90;99.90;;;;;;5006162;28;20042;-88
2023/04/11 05:09:48;;;;;;;7.18;1.48;;;8.00;99.90;;;;;;5011634;28;20054;-87
2023/04/11 05:12:16;;;;;;;7.60;2.08;;;8.00;99.90;;;;;;5009109;28;20036;-88
2023/04/11 05:14:42;;;;;;;8.90;1.40;;;7.90;99.90;;;;;;5008417;28;20025;-88
2023/04/11 05:17:08;;;;;;;9.50;1.77;;;7.90;99.90;;;;;;5005363;28;20037;-89
2023/04/11 05:19:34;;;;;;;12.68;1.55;;;7.80;99.90;;;;;;5010243;28;20059;-87
2023/04/11 05:22:05;;;;;;;9.68;1.88;;;7.70;99.90;;;;;;5011756;28;20109;-87
2023/04/11 05:24:31;;;;;;;10.63;1.60;;;7.70;99.90;;;;;;5006511;28;20046;-87
2023/04/11 05:26:57;;;;;;;8.10;1.50;;;7.70;99.90;;;;;;5007665;28;20032;-86
2023/04/11 05:29:23;;;;;;;6.93;1.30;;;7.60;99.90;;;;;;5007527;28;20042;-88
2023/04/11 05:31:49;;;;;;;12.40;1.80;;;7.60;99.90;;;;;;5004133;28;20037;-88
2023/04/11 05:34:15;;;;;;;10.93;1.65;;;7.50;99.90;;;;;;5007045;28;20482;-87
2023/04/11 05:36:41;;;;;;;8.00;1.58;;;7.50;99.90;;;;;;5006534;28;20076;-87
2023/04/11 05:39:07;;;;;;;5.75;0.82;;;7.40;99.90;;;;;;5004063;28;20030;-87
2023/04/11 05:41:34;;;;;;;8.32;1.00;;;7.40;99.90;;;;;;5004784;28;20018;-87
2023/04/11 05:44:01;;;;;;;10.18;1.55;;;7.40;99.90;;;;;;5004680;28;20462;-86
2023/04/11 05:46:28;;;;;;;8.20;1.40;;;7.30;99.90;;;;;;5005232;28;20037;-87
2023/04/11 05:48:56;;;;;;;9.88;1.50;;;7.40;99.90;;;;;;5022192;28;20057;-87
2023/04/11 05:51:23;;;;;;;11.50;2.30;;;7.30;99.90;;;;;;5005650;28;20421;-87
2023/04/11 05:53:51;;;;;;;5.93;1.10;;;7.30;99.90;;;;;;5006267;28;20029;-87
2023/04/11 05:56:21;;;;;;;7.65;1.30;;;7.40;99.90;;;;;;5004590;28;20018;-87
2023/04/11 05:58:47;;;;;;;3.63;1.08;;;7.30;99.90;;;;;;5003299;28;20057;-87
2023/04/11 06:01:18;;;;;;;6.68;1.30;;;7.30;99.90;;;;;;5006246;28;20022;-87
2023/04/11 06:03:46;;;;;;;11.63;1.73;;;7.40;99.90;;;;;;5008385;28;20137;-86
2023/04/11 06:06:22;;;;;;;6.32;0.90;;;7.40;99.90;;;;;;5006136;28;20038;-87
2023/04/11 06:09:00;;;;;;;8.48;1.17;;;7.40;99.90;;;;;;5003839;28;20034;-87
2023/04/11 06:11:27;;;;;;;9.00;1.52;;;7.40;99.90;;;;;;5004079;28;20966;-86
2023/04/11 06:13:53;;;;;;;5.22;0.90;;;7.50;99.90;;;;;;4986465;28;20040;-88
2023/04/11 06:16:31;;;;;;;6.75;1.40;;;7.50;99.90;;;;;;4986632;28;20022;-87
2023/04/11 06:18:59;;;;;;;7.72;1.50;;;7.50;99.90;;;;;;5007627;28;20132;-87
2023/04/11 06:21:25;;;;;;;7.53;1.20;;;7.50;99.90;;;;;;5003788;28;20131;-87
2023/04/11 06:23:54;;;;;;;10.65;1.80;;;7.50;99.90;;;;;;5003418;28;20133;-87
2023/04/11 06:26:19;;;;;;;8.63;2.28;;;7.60;99.90;;;;;;5004180;28;20113;-86
2023/04/11 06:28:47;;;;;;;10.98;1.30;;;7.60;99.90;;;;;;5005261;28;20165;-87
2023/04/11 06:31:17;;;;;;;8.30;1.45;;;7.70;99.90;;;;;;5005339;28;20041;-88
2023/04/11 06:33:43;;;;;;;8.80;1.70;;;7.70;99.90;;;;;;5003685;28;20026;-89
2023/04/11 06:36:10;;;;;;;10.23;2.15;;;7.80;99.90;;;;;;4991978;28;20061;-88
2023/04/11 06:38:42;;;;;;;10.57;2.17;;;7.90;99.90;;;;;;5020176;28;20409;-88
2023/04/11 06:41:09;;;;;;;10.00;1.75;;;7.90;99.90;;;;;;4989358;28;20124;-89
2023/04/11 06:43:35;;;;;;;9.48;2.63;;;8.00;99.90;;;;;;5002378;28;20026;-89
2023/04/11 06:46:06;;;;;;;9.13;1.98;;;8.00;99.90;;;;;;5004660;28;20033;-87
2023/04/11 06:48:33;;;;;;;8.00;1.50;;;8.10;99.90;;;;;;5002358;28;20018;-87
2023/04/11 06:50:59;;;;;;;9.27;1.80;;;8.20;99.90;;;;;;5001155;28;20031;-88
2023/04/11 06:53:28;;;;;;;8.15;1.92;;;8.20;99.90;;;;;;4999951;28;20784;-87
2023/04/11 06:55:59;;;;;;;7.07;1.50;;;8.30;99.90;;;;;;4986090;28;20038;-88
2023/04/11 06:58:25;;;;;;;11.63;2.55;;;8.30;99.90;;;;;;4997685;28;22356;-87
2023/04/11 07:00:55;;;;;;;17.08;2.33;;;8.40;99.90;;;;;;5001663;28;20041;-87
2023/04/11 07:03:23;;;;;;;7.70;1.90;;;8.40;99.90;;;;;;4997920;28;20040;-87
2023/04/11 07:05:52;;;;;;;7.50;1.90;;;8.50;99.90;;;;;;5018873;28;20021;-86
2023/04/11 07:08:23;;;;;;;9.45;1.70;;;8.50;99.90;;;;;;5001459;28;20064;-88
2023/04/11 07:10:52;;;;;;;8.35;1.30;;;8.60;99.90;;;;;;5000788;28;20026;-88
2023/04/11 07:13:20;;;;;;;10.68;1.83;;;8.70;99.90;;;;;;5001161;28;20057;-86
2023/04/11 07:15:48;;;;;;;14.15;2.10;;;8.70;99.90;;;;;;4984546;28;20038;-87
2023/04/11 07:18:15;;;;;;;9.25;1.92;;;8.80;99.90;;;;;;5009534;28;20033;-86
2023/04/11 07:20:41;;;;;;;9.07;2.15;;;8.90;99.90;;;;;;5018632;28;20112;-87
2023/04/11 07:23:06;;;;;;;10.15;1.52;;;9.00;99.90;;;;;;5001959;28;20116;-88
2023/04/11 07:25:33;;;;;;;10.50;2.03;;;9.20;99.90;;;;;;5020637;28;20033;-88
2023/04/11 07:27:59;;;;;;;13.35;2.40;;;9.30;99.90;;;;;;5018395;28;20639;-88
2023/04/11 07:30:29;;;;;;;14.50;2.38;;;9.30;99.90;;;;;;4984915;28;20063;-87
2023/04/11 07:32:55;;;;;;;11.88;2.53;;;9.30;99.90;;;;;;5019882;28;20021;-89
2023/04/11 07:35:22;;;;;;;11.88;1.88;;;9.30;99.90;;;;;;5002013;28;20057;-88
2023/04/11 07:37:52;;;;;;;13.98;2.00;;;9.30;99.90;;;;;;5002699;28;20033;-88
2023/04/11 07:40:20;;;;;;;9.35;2.05;;;9.20;99.90;;;;;;5001218;28;20034;-87
2023/04/11 07:42:46;;;;;;;8.55;1.92;;;9.20;99.90;;;;;;4987319;28;20095;-87
2023/04/11 07:45:13;;;;;;;8.40;1.40;;;9.20;99.90;;;;;;4999713;28;20029;-86
2023/04/11 07:47:39;;;;;;;8.82;1.50;;;9.30;99.90;;;;;;5015878;28;20084;-88
2023/04/11 07:50:08;;;;;;;10.07;1.30;;;9.40;99.90;;;;;;4999642;28;20128;-87
2023/04/11 07:52:34;;;;;;;9.40;1.30;;;9.50;99.90;;;;;;5004781;28;20125;-88
2023/04/11 07:55:01;;;;;;;6.22;1.58;;;9.70;99.90;;;;;;4999602;28;20112;-88
2023/04/11 07:57:26;;;;;;;8.55;1.10;;;9.80;99.90;;;;;;5019428;28;20037;-85
2023/04/11 07:59:53;;;;;;;10.20;1.48;;;9.70;99.90;;;;;;5017241;28;20038;-87
2023/04/11 08:02:19;;;;;;;7.55;1.10;;;9.70;99.90;;;;;;5014813;28;20040;-87
2023/04/11 08:04:45;;;;;;;7.70;1.40;;;9.50;99.90;;;;;;5004680;28;20054;-87
2023/04/11 08:07:14;;;;;;;8.73;1.50;;;9.50;99.90;;;;;;4998828;28;20041;-87
2023/04/11 08:09:43;;;;;;;7.32;1.13;;;9.50;99.90;;;;;;5001324;28;20029;-87
2023/04/11 08:12:09;;;;;;;7.60;1.20;;;9.70;99.90;;;;;;4998674;28;20040;-87
2023/04/11 08:14:37;;;;;;;12.07;1.90;;;9.80;99.90;;;;;;4999092;28;20200;-88
2023/04/11 08:17:06;;;;;;;8.20;1.60;;;9.90;99.90;;;;;;4998956;28;20113;-87
2023/04/11 08:19:32;;;;;;;7.68;1.30;;;9.90;99.90;;;;;;4981875;28;20042;-86
2023/04/11 08:21:58;;;;;;;8.85;1.80;;;9.80;99.90;;;;;;4998127;28;20740;-88
2023/04/11 08:24:24;;;;;;;10.40;1.45;;;9.80;99.90;;;;;;4996558;28;20551;-87
2023/04/11 08:26:50;;;;;;;9.18;1.70;;;9.80;99.90;;;;;;5002968;28;20467;-87
2023/04/11 08:29:17;;;;;;;8.88;1.52;;;9.70;99.90;;;;;;4998872;28;20033;-86
2023/04/11 08:31:44;;;;;;;8.05;1.92;;;9.70;99.90;;;;;;4996820;28;20099;-87
2023/04/11 08:34:11;;;;;;;6.63;1.30;;;9.80;99.90;;;;;;5000897;28;20462;-87
2023/04/11 08:36:37;;;;;;;8.55;1.30;;;9.80;99.90;;;;;;4997256;28;20589;-86
2023/04/11 08:39:05;;;;;;;7.15;1.35;;;9.90;99.90;;;;;;5000255;28;20042;-87
2023/04/11 08:41:32;;;;;;;7.93;1.38;;;9.80;99.90;;;;;;4998377;28;20053;-86
2023/04/11 08:43:58;;;;;;;4.93;1.35;;;9.80;99.90;;;;;;5002110;28;20037;-87
2023/04/11 08:46:24;;;;;;;6.50;1.73;;;9.80;99.90;;;;;;5002352;28;20033;-88
2023/04/11 08:48:50;;;;;;;5.47;1.23;;;9.80;99.90;;;;;;4996689;28;20080;-86
2023/04/11 08:51:28;;;;;;;7.05;1.40;;;9.90;99.90;;;;;;5000027;28;20037;-86
2023/04/11 08:53:56;;;;;;;9.23;1.73;;;10.00;99.90;;;;;;4995835;28;20030;-87
2023/04/11 08:56:22;;;;;;;6.57;1.00;;;10.10;99.90;;;;;;5010811;28;20030;-87
2023/04/11 08:58:48;;;;;;;8.43;1.88;;;10.20;99.90;;;;;;4985424;28;20034;-87
2023/04/11 09:01:30;;;;;;;8.43;1.65;;;10.20;99.90;;;;;;5000198;28;20037;-87
2023/04/11 09:04:03;;;;;;;11.40;1.63;;;10.30;99.90;;;;;;5003166;28;20054;-87
2023/04/11 09:06:31;;;;;;;10.30;1.40;;;10.40;99.90;;;;;;5001293;28;20116;-89
2023/04/11 09:09:07;;;;;;;5.80;1.17;;;10.50;99.90;;;;;;5000052;28;20477;-86
2023/04/11 09:11:54;;;;;;;9.60;1.65;;;10.70;99.90;;;;;;5020502;28;20033;-88
2023/04/11 09:14:26;;;;;;;9.52;1.58;;;10.80;99.90;;;;;;5002555;28;20099;-89
2023/04/11 09:17:04;;;;;;;7.00;1.83;;;10.90;99.90;;;;;;5025033;28;20134;-88
2023/04/11 09:19:35;;;;;;;9.00;1.67;;;11.10;99.90;;;;;;5021269;28;20030;-87
2023/04/11 09:22:06;;;;;;;8.88;1.52;;;11.20;99.90;;;;;;5023649;28;20057;-87
2023/04/11 09:24:35;;;;;;;8.68;1.67;;;11.30;99.90;;;;;;5002031;28;20036;-88
2023/04/11 09:27:19;;;;;;;8.68;1.83;;;11.30;99.90;;;;;;5019118;28;20036;-87
2023/04/11 09:29:46;;;;;;;5.28;1.52;;;11.20;99.90;;;;;;5022015;28;20029;-87
2023/04/11 09:32:31;;;;;;;7.82;1.40;;;11.00;99.90;;;;;;5020163;28;20037;-87
2023/04/11 09:35:15;;;;;;;5.53;1.45;;;11.00;99.90;;;;;;5020883;28;20521;-87
2023/04/11 09:37:45;;;;;;;9.48;1.77;;;10.90;99.90;;;;;;5017977;28;20045;-87
2023/04/11 09:40:18;;;;;;;8.15;1.65;;;11.10;99.90;;;;;;5018587;28;20530;-87
2023/04/11 09:42:45;;;;;;;8.18;1.80;;;11.30;99.90;;;;;;5019885;28;20052;-88
2023/04/11 09:45:22;;;;;;;9.80;1.63;;;12.30;99.90;;;;;;5002304;28;20060;-89
2023/04/11 09:47:54;;;;;;;4.03;1.30;;;13.70;99.90;;;;;;5006258;28;20022;-88
2023/04/11 09:50:21;;;;;;;8.05;1.48;;;14.40;99.90;;;;;;5016252;28;20060;-88
2023/04/11 09:52:48;;;;;;;6.15;1.40;;;14.40;99.90;;;;;;5001313;28;20035;-86
2023/04/11 09:55:18;;;;;;;5.10;1.20;;;14.20;99.90;;;;;;5016724;28;20026;-87
2023/04/11 09:57:46;;;;;;;10.32;1.73;;;13.80;99.90;;;;;;5017376;28;20115;-87
2023/04/11 10:00:15;;;;;;;5.53;1.48;;;14.50;99.90;;;;;;5018189;28;20041;-87
2023/04/11 10:02:43;;;;;;;8.00;1.45;;;15.60;99.90;;;;;;5000097;28;20096;-86
2023/04/11 10:05:12;;;;;;;6.43;1.20;;;15.30;99.90;;;;;;4998972;28;20042;-88
2023/04/11 10:07:46;;;;;;;6.18;1.38;;;14.70;99.90;;;;;;4995794;28;20034;-86
2023/04/11 10:10:20;;;;;;;7.47;2.35;;;14.60;99.90;;;;;;4997370;28;20062;-86
2023/04/11 10:12:47;;;;;;;9.95;1.58;;;14.60;99.90;;;;;;5012689;28;20033;-87
2023/04/11 10:15:13;;;;;;;5.38;1.00;;;15.20;99.90;;;;;;4997416;28;20029;-86
2023/04/11 10:17:40;;;;;;;7.53;1.48;;;16.00;99.90;;;;;;4997954;28;20517;-85
2023/04/11 10:20:34;;;;;;;5.53;1.10;;;16.70;99.90;;;;;;4997721;28;20128;-87
2023/04/11 10:23:01;;;;;;;3.67;0.90;;;17.00;99.90;;;;;;4997336;28;20049;-86
2023/04/11 10:25:28;;;;;;;5.65;1.17;;;16.70;99.90;;;;;;5006699;28;20081;-87
2023/04/11 10:28:05;;;;;;;5.82;1.20;;;16.70;99.90;;;;;;5000760;28;20033;-89
2023/04/11 10:30:58;;;;;;;4.93;0.95;;;17.20;99.90;;;;;;4998096;28;20037;-87
2023/04/11 10:33:26;;;;;;;5.25;1.38;;;17.60;99.90;;;;;;4995254;28;20663;-88
2023/04/11 10:36:09;;;;;;;4.70;1.08;;;17.90;99.90;;;;;;4997449;28;20109;-88
2023/04/11 10:38:49;;;;;;;7.43;1.55;;;18.20;99.10;;;;;;4997160;28;20048;-88
2023/04/11 10:41:34;;;;;;;5.13;1.23;;;18.10;98.60;;;;;;4998453;28;20049;-88
2023/04/11 10:44:23;;;;;;;3.85;0.90;;;18.10;97.40;;;;;;5013641;28;20060;-87
2023/04/11 10:47:18;;;;;;;4.68;1.02;;;18.00;96.40;;;;;;4998119;28;20042;-86
2023/04/11 10:49:48;;;;;;;3.80;1.10;;;18.00;96.80;;;;;;5000340;28;20057;-85
2023/04/11 10:52:23;;;;;;;4.53;0.93;;;18.10;96.40;;;;;;4995966;28;20058;-85
2023/04/11 10:55:25;;;;;;;3.65;0.95;;;18.40;96.60;;;;;;4996670;28;20497;-87
2023/04/11 10:58:07;;;;;;;4.85;0.80;;;18.70;95.70;;;;;;4994498;28;20034;-87
2023/04/11 11:00:52;;;;;;;5.57;1.40;;;18.90;95.70;;;;;;5000700;28;20096;-88
2023/04/11 11:03:32;;;;;;;5.72;1.00;;;19.00;93.80;;;;;;5012595;28;20034;-86
2023/04/11 11:06:07;;;;;;;4.10;1.10;;;18.70;94.10;;;;;;4996663;28;20120;-86
2023/04/11 11:08:41;;;;;;;6.22;1.00;;;18.60;94.70;;;;;;4998093;28;20034;-85
2023/04/11 11:11:09;;;;;;;5.65;1.25;;;18.90;94.70;;;;;;5010030;28;20066;-86
2023/04/11 11:13:47;;;;;;;4.97;1.20;;;19.40;94.70;;;;;;4996804;28;20790;-88
2023/04/11 11:16:21;;;;;;;3.90;1.00;;;19.90;94.20;;;;;;5013010;28;20032;-86
2023/04/11 11:18:53;;;;;;;8.27;1.05;;;19.50;93.10;;;;;;5012134;28;20034;-86
2023/04/11 11:21:23;;;;;;;4.53;1.45;;;18.90;92.90;;;;;;4995191;28;20421;-88
2023/04/11 11:23:56;;;;;;;5.65;1.08;;;18.80;93.40;;;;;;4995165;28;20110;-86
2023/04/11 11:26:42;;;;;;;3.08;0.70;;;19.20;93.40;;;;;;5006747;28;20057;-87
2023/04/11 11:29:10;;;;;;;4.50;0.98;;;19.50;93.40;;;;;;5011729;28;20139;-86
2023/04/11 11:31:46;;;;;;;4.13;1.00;;;19.50;92.90;;;;;;4997071;28;20045;-87
2023/04/11 11:34:25;;;;;;;3.40;0.85;;;19.70;92.70;;;;;;4996570;28;20140;-86
2023/04/11 11:36:52;;;;;;;5.57;1.20;;;18.90;91.70;;;;;;4996322;28;20045;-86
2023/04/11 11:39:18;;;;;;;4.53;1.20;;;18.30;92.60;;;;;;5013275;28;20036;-88
2023/04/11 11:41:45;;;;;;;6.25;1.00;;;18.60;92.30;;;;;;5012698;28;20033;-86
2023/04/11 11:44:25;;;;;;;5.53;1.15;;;18.80;93.20;;;;;;4996511;28;20037;-86
2023/04/11 11:47:05;;;;;;;3.75;0.90;;;19.50;91.80;;;;;;4994756;28;20034;-88
2023/04/11 11:49:50;;;;;;;5.85;1.48;;;19.60;92.00;;;;;;4994811;28;20124;-87
2023/04/11 11:52:36;;;;;;;5.13;1.27;;;19.10;91.20;;;;;;5011915;28;20425;-87
2023/04/11 11:55:04;;;;;;;4.40;1.33;;;18.70;91.70;;;;;;4997620;28;20164;-88
2023/04/11 11:57:36;;;;;;;7.65;1.52;;;18.30;93.00;;;;;;4993043;28;20116;-88
2023/04/11 12:00:04;;;;;;;4.35;1.35;;;18.60;92.60;;;;;;4994141;28;20034;-86
2023/04/11 12:02:35;;;;;;;5.57;1.13;;;18.70;92.40;;;;;;4994686;28;20036;-85
2023/04/11 12:05:05;;;;;;;4.32;1.00;;;18.90;92.20;;;;;;5007200;28;20660;-86
2023/04/11 12:07:33;;;;;;;4.88;1.13;;;18.30;91.60;;;;;;5000104;28;20069;-85
2023/04/11 12:10:00;;;;;;;6.43;1.35;;;18.10;91.40;;;;;;4996031;28;20537;-87
2023/04/11 12:12:36;;;;;;;4.72;1.23;;;17.50;91.70;;;;;;5007768;28;20480;-87
2023/04/11 12:15:35;;;;;;;6.82;1.05;;;17.80;93.20;;;;;;4996883;28;20136;-87
2023/04/11 12:18:05;;;;;;;5.35;1.40;;;18.40;92.50;;;;;;4986917;28;20494;-87
2023/04/11 12:20:33;;;;;;;4.80;1.15;;;18.50;92.40;;;;;;4977914;28;20120;-87
2023/04/11 12:23:06;;;;;;;6.30;1.48;;;17.90;92.50;;;;;;4984540;28;20037;-88
2023/04/11 12:25:32;;;;;;;7.07;1.50;;;18.30;93.60;;;;;;4996136;28;20087;-88
2023/04/11 12:28:00;;;;;;;5.05;1.20;;;18.40;92.10;;;;;;4994442;28;20025;-88
2023/04/11 12:30:28;;;;;;;5.35;1.00;;;18.40;92.50;;;;;;4995498;28;20026;-87
2023/04/11 12:32:55;;;;;;;4.07;1.13;;;19.10;92.80;;;;;;4994643;28;20092;-86
2023/04/11 12:35:24;;;;;;;4.82;1.20;;;19.90;91.80;;;;;;4996525;28;20038;-85
2023/04/11 12:37:53;;;;;;;6.15;1.30;;;19.90;91.00;;;;;;4994813;28;20037;-86
2023/04/11 12:40:20;;;;;;;4.75;1.10;;;19.60;91.30;;;;;;4994613;28;20060;-85
2023/04/11 12:42:47;;;;;;;5.35;1.30;;;18.70;91.90;;;;;;4996892;28;20049;-85
2023/04/11 12:45:16;;;;;;;7.35;1.40;;;18.40;91.90;;;;;;5000911;28;20030;-86
2023/04/11 12:47:43;;;;;;;5.43;1.20;;;17.70;91.80;;;;;;4996367;28;20978;-85
2023/04/11 12:50:09;;;;;;;4.40;1.02;;;17.70;92.80;;;;;;4998517;28;20021;-85
2023/04/11 12:52:36;;;;;;;5.60;1.00;;;18.00;93.20;;;;;;4998031;28;20033;-85
2023/04/11 12:55:03;;;;;;;5.72;1.10;;;18.60;91.70;;;;;;4982081;28;20038;-85
2023/04/11 12:57:28;;;;;;;4.15;1.27;;;18.90;90.20;;;;;;5003050;28;20385;-86